Time;durP1;ratioP1;P1;durP2;ratioP2;P2;SDS_P1;SDS_P2;PMS_P1;PMS_P2;Temp;Humidity;BMP_temperature;BMP_pressure;BME280_temperature;BME280_humidity;BME280_pressure;Samples;Min_cycle;Max_cycle;Signal;HPM_P1;HPM_P2
2021/11/29 00:00:57;;;;;;;26.54;13.71;;;;;;;;;;358040;148;865980;-57
2021/11/29 00:02:04;;;;;;;44.99;15.87;;;;;;;;;;357926;148;861701;-57
2021/11/29 00:03:07;;;;;;;41.06;16.52;;;;;;;;;;357111;147;859709;-57
2021/11/29 00:04:08;;;;;;;43.04;18.38;;;;;;;;;;360554;148;858665;-58
2021/11/29 00:05:10;;;;;;;37.20;16.09;;;;;;;;;;359160;147;857095;-57
2021/11/29 00:06:12;;;;;;;40.92;18.51;;;;;;;;;;357940;147;864924;-57
2021/11/29 00:07:13;;;;;;;39.14;17.07;;;;;;;;;;358347;147;857326;-57
2021/11/29 00:08:15;;;;;;;35.71;15.43;;;;;;;;;;358974;148;865099;-57
2021/11/29 00:09:17;;;;;;;31.02;15.08;;;;;;;;;;358223;148;866754;-57
2021/11/29 00:10:19;;;;;;;41.87;16.62;;;;;;;;;;359002;148;861882;-57
2021/11/29 00:11:20;;;;;;;34.57;16.62;;;;;;;;;;358077;148;857278;-57
2021/11/29 00:12:22;;;;;;;31.78;15.41;;;;;;;;;;358995;148;866127;-57
2021/11/29 00:13:23;;;;;;;26.75;14.63;;;;;;;;;;349772;150;863421;-57
2021/11/29 00:14:25;;;;;;;30.39;15.34;;;;;;;;;;360725;148;866722;-57
2021/11/29 00:15:27;;;;;;;36.02;16.43;;;;;;;;;;359953;148;862429;-57
2021/11/29 00:16:29;;;;;;;29.53;16.55;;;;;;;;;;359097;147;861824;-56
2021/11/29 00:17:30;;;;;;;38.14;13.92;;;;;;;;;;358816;147;859019;-57
2021/11/29 00:18:32;;;;;;;30.04;15.59;;;;;;;;;;358829;150;864844;-57
2021/11/29 00:19:33;;;;;;;34.04;15.76;;;;;;;;;;359273;147;865933;-57
2021/11/29 00:20:36;;;;;;;42.95;15.15;;;;;;;;;;358143;147;865168;-57
2021/11/29 00:21:38;;;;;;;40.26;17.53;;;;;;;;;;357976;148;865906;-57
2021/11/29 00:22:39;;;;;;;47.91;15.71;;;;;;;;;;358946;149;858081;-57
2021/11/29 00:23:42;;;;;;;45.67;15.87;;;;;;;;;;358407;147;865562;-57
2021/11/29 00:24:44;;;;;;;38.94;13.77;;;;;;;;;;360003;147;860993;-57
2021/11/29 00:25:45;;;;;;;26.38;14.12;;;;;;;;;;359338;148;867230;-57
2021/11/29 00:26:47;;;;;;;33.04;15.36;;;;;;;;;;358493;149;864896;-57
2021/11/29 00:27:49;;;;;;;36.39;14.25;;;;;;;;;;360749;147;866568;-57
2021/11/29 00:28:50;;;;;;;25.83;10.36;;;;;;;;;;359186;148;864916;-56
2021/11/29 00:29:52;;;;;;;44.86;16.11;;;;;;;;;;358904;148;863192;-56
2021/11/29 00:30:54;;;;;;;29.81;14.47;;;;;;;;;;358624;148;864859;-56
2021/11/29 00:31:55;;;;;;;23.16;12.61;;;;;;;;;;360153;147;864933;-56
2021/11/29 00:32:57;;;;;;;24.34;11.93;;;;;;;;;;359427;148;866160;-56
2021/11/29 00:33:59;;;;;;;28.56;13.79;;;;;;;;;;358006;147;864946;-57
2021/11/29 00:35:00;;;;;;;27.98;14.65;;;;;;;;;;359289;147;865052;-57
2021/11/29 00:36:02;;;;;;;30.40;14.85;;;;;;;;;;355563;148;857081;-56
2021/11/29 00:37:04;;;;;;;26.02;11.43;;;;;;;;;;358389;148;866288;-57
2021/11/29 00:38:06;;;;;;;38.01;14.55;;;;;;;;;;358404;147;857295;-57
2021/11/29 00:39:27;;;;;;;24.18;13.85;;;;;;;;;;358699;143;858977;-57
2021/11/29 00:40:30;;;;;;;28.91;14.98;;;;;;;;;;351142;150;857195;-57
2021/11/29 00:41:31;;;;;;;31.23;14.37;;;;;;;;;;351409;150;857290;-57
2021/11/29 00:42:33;;;;;;;29.40;13.95;;;;;;;;;;349203;152;860942;-57
2021/11/29 00:43:35;;;;;;;33.35;16.03;;;;;;;;;;351103;150;857359;-57
2021/11/29 00:44:36;;;;;;;35.21;15.70;;;;;;;;;;345559;153;866714;-57
2021/11/29 00:45:38;;;;;;;30.99;15.30;;;;;;;;;;352063;150;865028;-57
2021/11/29 00:46:39;;;;;;;28.91;16.17;;;;;;;;;;351736;149;868575;-57
2021/11/29 00:47:41;;;;;;;38.84;17.14;;;;;;;;;;354152;149;866798;-57
2021/11/29 00:48:43;;;;;;;34.39;17.32;;;;;;;;;;351262;150;865593;-57
2021/11/29 00:49:44;;;;;;;26.04;13.68;;;;;;;;;;352137;152;865055;-56
2021/11/29 00:50:46;;;;;;;32.02;15.83;;;;;;;;;;352916;150;864921;-57
2021/11/29 00:51:48;;;;;;;31.25;15.51;;;;;;;;;;353482;150;866685;-56
2021/11/29 00:52:49;;;;;;;34.37;16.67;;;;;;;;;;352361;150;865609;-57
2021/11/29 00:53:51;;;;;;;35.44;15.58;;;;;;;;;;341221;155;864966;-57
2021/11/29 00:54:53;;;;;;;30.84;13.75;;;;;;;;;;352643;150;865492;-57
2021/11/29 00:55:54;;;;;;;33.60;16.24;;;;;;;;;;353387;150;866296;-56
2021/11/29 00:56:56;;;;;;;28.37;15.59;;;;;;;;;;352109;150;864991;-57
2021/11/29 00:57:57;;;;;;;22.39;14.22;;;;;;;;;;354040;150;866680;-56
2021/11/29 00:58:59;;;;;;;33.28;15.86;;;;;;;;;;344645;152;865125;-56
2021/11/29 01:00:01;;;;;;;30.21;14.82;;;;;;;;;;339391;156;862605;-57
2021/11/29 01:01:02;;;;;;;29.24;15.65;;;;;;;;;;346256;153;862810;-56
2021/11/29 01:02:05;;;;;;;34.76;17.67;;;;;;;;;;346765;153;857311;-56
2021/11/29 01:03:07;;;;;;;28.89;15.64;;;;;;;;;;338868;156;866220;-56
2021/11/29 01:04:08;;;;;;;25.56;14.27;;;;;;;;;;345135;153;859010;-56
2021/11/29 01:05:10;;;;;;;25.16;13.18;;;;;;;;;;346578;153;866559;-57
2021/11/29 01:06:12;;;;;;;24.28;14.96;;;;;;;;;;345549;153;864850;-58
2021/11/29 01:07:14;;;;;;;22.49;12.51;;;;;;;;;;345992;153;859875;-56
2021/11/29 01:08:16;;;;;;;27.65;15.48;;;;;;;;;;348460;152;864795;-57
2021/11/29 01:09:17;;;;;;;26.78;15.70;;;;;;;;;;347981;153;860645;-57
2021/11/29 01:10:19;;;;;;;25.59;14.76;;;;;;;;;;344804;153;857326;-56
2021/11/29 01:11:21;;;;;;;26.84;15.81;;;;;;;;;;338908;157;857363;-56
2021/11/29 01:12:23;;;;;;;25.81;15.50;;;;;;;;;;346287;155;858280;-56
2021/11/29 01:13:24;;;;;;;26.49;15.97;;;;;;;;;;346441;153;864818;-56
2021/11/29 01:14:26;;;;;;;27.28;15.96;;;;;;;;;;344207;153;865944;-56
2021/11/29 01:15:34;;;;;;;28.39;15.04;;;;;;;;;;345592;153;865227;-57
2021/11/29 01:16:36;;;;;;;26.71;13.67;;;;;;;;;;342730;153;857766;-57
2021/11/29 01:17:37;;;;;;;20.14;10.94;;;;;;;;;;346243;153;857329;-57
2021/11/29 01:18:39;;;;;;;26.26;14.76;;;;;;;;;;346974;153;857467;-56
2021/11/29 01:19:40;;;;;;;27.21;15.34;;;;;;;;;;348776;153;864884;-57
2021/11/29 01:20:43;;;;;;;25.72;14.25;;;;;;;;;;346252;153;865132;-56
2021/11/29 01:21:44;;;;;;;28.77;15.09;;;;;;;;;;345911;153;857349;-57
2021/11/29 01:22:46;;;;;;;27.19;16.00;;;;;;;;;;345627;153;857513;-58
2021/11/29 01:23:48;;;;;;;25.71;14.84;;;;;;;;;;346895;153;864878;-55
2021/11/29 01:24:50;;;;;;;28.00;15.23;;;;;;;;;;347031;153;865992;-56
2021/11/29 01:25:53;;;;;;;22.42;13.55;;;;;;;;;;347391;153;857703;-56
2021/11/29 01:26:55;;;;;;;24.66;12.66;;;;;;;;;;346860;153;862510;-57
2021/11/29 01:27:56;;;;;;;22.59;13.57;;;;;;;;;;345370;153;866810;-57
2021/11/29 01:28:58;;;;;;;41.01;18.66;;;;;;;;;;346294;153;857324;-57
2021/11/29 01:30:00;;;;;;;24.65;13.52;;;;;;;;;;339612;156;861287;-57
2021/11/29 01:31:01;;;;;;;31.28;15.91;;;;;;;;;;338189;157;858377;-57
2021/11/29 01:32:03;;;;;;;34.92;15.74;;;;;;;;;;339772;155;859396;-57
2021/11/29 01:33:05;;;;;;;25.08;13.14;;;;;;;;;;345059;153;865526;-57
2021/11/29 01:34:07;;;;;;;30.15;16.01;;;;;;;;;;348580;153;859346;-57
2021/11/29 01:35:09;;;;;;;30.11;15.93;;;;;;;;;;346175;153;858445;-57
2021/11/29 01:36:11;;;;;;;39.17;19.59;;;;;;;;;;344631;154;866089;-57
2021/11/29 01:37:13;;;;;;;33.01;17.08;;;;;;;;;;346182;153;857303;-57
2021/11/29 01:38:14;;;;;;;24.74;13.77;;;;;;;;;;345922;153;866639;-58
2021/11/29 01:39:16;;;;;;;29.26;15.61;;;;;;;;;;345015;153;864753;-57
2021/11/29 01:40:18;;;;;;;23.53;13.67;;;;;;;;;;344767;153;861602;-57
2021/11/29 01:41:21;;;;;;;34.31;15.61;;;;;;;;;;345015;153;858931;-57
2021/11/29 01:42:22;;;;;;;16.19;10.19;;;;;;;;;;344588;153;865844;-57
2021/11/29 01:43:24;;;;;;;27.42;13.59;;;;;;;;;;344821;153;865149;-57
2021/11/29 01:44:26;;;;;;;23.01;12.42;;;;;;;;;;337595;156;864853;-57
2021/11/29 01:45:28;;;;;;;27.62;14.41;;;;;;;;;;344516;154;866129;-57
2021/11/29 01:46:30;;;;;;;35.83;18.12;;;;;;;;;;344302;153;864993;-57
2021/11/29 01:47:31;;;;;;;32.96;16.75;;;;;;;;;;345026;153;859265;-57
2021/11/29 01:48:33;;;;;;;29.02;16.40;;;;;;;;;;346238;153;866749;-57
2021/11/29 01:49:34;;;;;;;25.26;14.00;;;;;;;;;;345598;153;863069;-57
2021/11/29 01:50:36;;;;;;;23.27;14.20;;;;;;;;;;344503;153;864920;-57
2021/11/29 01:51:38;;;;;;;20.11;11.42;;;;;;;;;;345900;153;864838;-57
2021/11/29 01:52:40;;;;;;;20.02;13.51;;;;;;;;;;345394;153;858015;-57
2021/11/29 01:53:41;;;;;;;21.26;13.56;;;;;;;;;;344790;153;865118;-57
2021/11/29 01:54:43;;;;;;;20.67;11.86;;;;;;;;;;337678;156;864860;-57
2021/11/29 01:55:45;;;;;;;23.55;12.75;;;;;;;;;;345206;153;866226;-57
2021/11/29 01:56:48;;;;;;;22.90;14.55;;;;;;;;;;337159;156;864859;-58
2021/11/29 01:57:49;;;;;;;21.15;13.10;;;;;;;;;;345194;153;857123;-57
2021/11/29 01:58:51;;;;;;;22.21;13.58;;;;;;;;;;344881;153;859811;-57
2021/11/29 01:59:52;;;;;;;24.79;13.36;;;;;;;;;;344457;156;864815;-57
2021/11/29 02:00:55;;;;;;;22.96;14.01;;;;;;;;;;344808;153;859034;-57
2021/11/29 02:01:57;;;;;;;23.69;12.39;;;;;;;;;;344571;154;864785;-57
2021/11/29 02:02:58;;;;;;;20.49;12.96;;;;;;;;;;338414;156;867497;-57
2021/11/29 02:04:00;;;;;;;29.06;15.54;;;;;;;;;;341551;153;864600;-57
2021/11/29 02:05:02;;;;;;;24.09;14.37;;;;;;;;;;345347;153;864341;-58
2021/11/29 02:06:03;;;;;;;17.81;11.97;;;;;;;;;;341877;154;857267;-57
2021/11/29 02:07:05;;;;;;;23.23;14.15;;;;;;;;;;344804;153;858931;-57
2021/11/29 02:08:07;;;;;;;20.19;13.18;;;;;;;;;;345582;154;864812;-57
2021/11/29 02:09:09;;;;;;;21.86;12.30;;;;;;;;;;337895;156;864321;-58
2021/11/29 02:10:11;;;;;;;21.25;13.79;;;;;;;;;;345873;154;865385;-57
2021/11/29 02:11:12;;;;;;;26.61;14.89;;;;;;;;;;338961;156;857749;-57
2021/11/29 02:12:14;;;;;;;20.79;12.77;;;;;;;;;;345089;154;865977;-58
2021/11/29 02:13:17;;;;;;;21.88;13.19;;;;;;;;;;345155;153;860896;-57
2021/11/29 02:14:19;;;;;;;20.14;13.39;;;;;;;;;;337359;157;862523;-57
2021/11/29 02:15:20;;;;;;;20.14;12.52;;;;;;;;;;345837;153;860469;-57
2021/11/29 02:16:23;;;;;;;18.95;13.24;;;;;;;;;;344843;153;866523;-55
2021/11/29 02:17:24;;;;;;;20.99;12.74;;;;;;;;;;345833;153;858888;-57
2021/11/29 02:18:27;;;;;;;21.21;12.68;;;;;;;;;;344432;154;864856;-57
2021/11/29 02:19:28;;;;;;;19.94;12.62;;;;;;;;;;345527;152;862972;-56
2021/11/29 02:20:31;;;;;;;19.20;10.80;;;;;;;;;;346769;153;858801;-56
2021/11/29 02:21:33;;;;;;;27.89;12.94;;;;;;;;;;347397;153;865369;-57
2021/11/29 02:22:34;;;;;;;19.39;12.61;;;;;;;;;;344776;155;859071;-57
2021/11/29 02:23:37;;;;;;;23.92;13.64;;;;;;;;;;344597;153;857749;-57
2021/11/29 02:24:38;;;;;;;20.21;12.17;;;;;;;;;;346557;153;866694;-57
2021/11/29 02:25:40;;;;;;;20.12;12.61;;;;;;;;;;344985;153;857511;-57
2021/11/29 02:26:42;;;;;;;19.51;13.05;;;;;;;;;;338772;156;866665;-57
2021/11/29 02:27:44;;;;;;;21.09;12.88;;;;;;;;;;340252;154;860063;-56
2021/11/29 02:28:46;;;;;;;17.16;10.79;;;;;;;;;;338109;157;866647;-56
2021/11/29 02:29:50;;;;;;;21.29;12.22;;;;;;;;;;345351;153;857151;-57
2021/11/29 02:30:52;;;;;;;19.15;12.63;;;;;;;;;;347871;153;858086;-57
2021/11/29 02:31:54;;;;;;;35.11;16.33;;;;;;;;;;346012;153;865185;-57
2021/11/29 02:32:55;;;;;;;23.20;14.43;;;;;;;;;;345837;153;857295;-56
2021/11/29 02:33:57;;;;;;;20.63;13.01;;;;;;;;;;344726;153;865617;-57
2021/11/29 02:34:58;;;;;;;23.29;14.20;;;;;;;;;;344923;153;864854;-57
2021/11/29 02:36:00;;;;;;;21.93;13.34;;;;;;;;;;345355;153;867339;-56
2021/11/29 02:37:03;;;;;;;22.96;14.87;;;;;;;;;;345082;153;863176;-57
2021/11/29 02:38:08;;;;;;;24.61;15.22;;;;;;;;;;344292;153;857246;-57
2021/11/29 02:39:10;;;;;;;22.68;15.54;;;;;;;;;;345126;153;858424;-57
2021/11/29 02:40:13;;;;;;;22.45;14.86;;;;;;;;;;344660;153;859235;-58
2021/11/29 02:41:14;;;;;;;23.70;15.06;;;;;;;;;;346855;153;857806;-57
2021/11/29 02:42:16;;;;;;;18.56;11.10;;;;;;;;;;345872;153;865537;-56
2021/11/29 02:43:18;;;;;;;25.04;15.34;;;;;;;;;;345650;153;857308;-56
2021/11/29 02:44:19;;;;;;;23.94;14.71;;;;;;;;;;345042;153;865729;-57
2021/11/29 02:45:21;;;;;;;25.16;15.79;;;;;;;;;;344477;153;865753;-57
2021/11/29 02:46:24;;;;;;;23.51;13.41;;;;;;;;;;344171;153;865620;-57
2021/11/29 02:47:25;;;;;;;24.37;15.51;;;;;;;;;;344259;153;857679;-57
2021/11/29 02:48:46;;;;;;;22.86;14.88;;;;;;;;;;345597;153;865836;-56
2021/11/29 02:49:48;;;;;;;18.97;12.85;;;;;;;;;;344537;153;864988;-57
2021/11/29 02:50:50;;;;;;;21.98;13.79;;;;;;;;;;344875;153;858787;-56
2021/11/29 02:51:52;;;;;;;20.59;12.91;;;;;;;;;;344474;153;857232;-56
2021/11/29 02:52:54;;;;;;;30.65;17.40;;;;;;;;;;344798;153;865736;-56
2021/11/29 02:53:57;;;;;;;32.26;17.19;;;;;;;;;;344962;154;866815;-57
2021/11/29 02:54:59;;;;;;;23.57;14.26;;;;;;;;;;344564;153;866782;-57
2021/11/29 02:56:01;;;;;;;25.56;14.31;;;;;;;;;;345116;153;864856;-57
2021/11/29 02:57:04;;;;;;;22.64;13.89;;;;;;;;;;342728;156;857174;-57
2021/11/29 02:58:06;;;;;;;32.96;18.16;;;;;;;;;;336110;157;865392;-57
2021/11/29 02:59:09;;;;;;;24.84;14.51;;;;;;;;;;343996;153;857172;-57
2021/11/29 03:00:12;;;;;;;21.92;14.26;;;;;;;;;;338748;156;858968;-57
2021/11/29 03:01:13;;;;;;;25.61;15.24;;;;;;;;;;344980;153;866614;-58
2021/11/29 03:02:16;;;;;;;29.83;16.40;;;;;;;;;;343705;153;857275;-57
2021/11/29 03:03:18;;;;;;;39.44;18.33;;;;;;;;;;344912;153;865541;-57
2021/11/29 03:04:20;;;;;;;29.07;16.59;;;;;;;;;;335031;156;859534;-57
2021/11/29 03:05:21;;;;;;;18.46;11.32;;;;;;;;;;344906;153;863948;-57
2021/11/29 03:06:23;;;;;;;24.36;15.89;;;;;;;;;;343429;154;856584;-57
2021/11/29 03:07:25;;;;;;;22.26;13.67;;;;;;;;;;342299;153;865406;-57
2021/11/29 03:08:26;;;;;;;25.14;14.60;;;;;;;;;;344661;153;865784;-57
2021/11/29 03:09:28;;;;;;;19.42;12.96;;;;;;;;;;345511;153;858379;-57
2021/11/29 03:10:30;;;;;;;25.70;14.85;;;;;;;;;;338386;156;864890;-57
2021/11/29 03:11:32;;;;;;;21.30;13.06;;;;;;;;;;344874;155;860056;-57
2021/11/29 03:12:34;;;;;;;21.04;12.98;;;;;;;;;;344670;153;857252;-57
2021/11/29 03:13:35;;;;;;;25.78;15.04;;;;;;;;;;344750;155;865241;-57
2021/11/29 03:14:37;;;;;;;24.69;14.86;;;;;;;;;;344944;153;864819;-57
2021/11/29 03:15:39;;;;;;;19.34;12.12;;;;;;;;;;344701;154;865230;-57
2021/11/29 03:16:40;;;;;;;23.51;14.10;;;;;;;;;;345074;153;864895;-57
2021/11/29 03:17:42;;;;;;;22.04;13.88;;;;;;;;;;337530;158;865027;-57
2021/11/29 03:18:44;;;;;;;22.81;14.57;;;;;;;;;;345545;153;864923;-57
2021/11/29 03:19:47;;;;;;;21.43;13.86;;;;;;;;;;343173;155;857703;-57
2021/11/29 03:20:49;;;;;;;23.69;14.68;;;;;;;;;;337675;156;857324;-57
2021/11/29 03:21:51;;;;;;;23.81;14.57;;;;;;;;;;344816;153;857232;-57
2021/11/29 03:22:52;;;;;;;24.19;13.86;;;;;;;;;;343620;153;858906;-57
2021/11/29 03:23:55;;;;;;;17.26;9.56;;;;;;;;;;343029;154;864799;-58
2021/11/29 03:24:57;;;;;;;20.37;11.91;;;;;;;;;;343876;153;861409;-58
2021/11/29 03:25:58;;;;;;;22.64;13.34;;;;;;;;;;340277;154;865246;-57
2021/11/29 03:27:00;;;;;;;20.28;11.95;;;;;;;;;;344120;153;865725;-57
2021/11/29 03:28:02;;;;;;;19.54;11.94;;;;;;;;;;344854;155;856777;-56
2021/11/29 03:29:05;;;;;;;21.41;12.89;;;;;;;;;;344189;154;868327;-56
2021/11/29 03:30:08;;;;;;;17.61;11.53;;;;;;;;;;337209;156;866713;-56
2021/11/29 03:31:10;;;;;;;20.39;12.43;;;;;;;;;;344765;153;857238;-57
2021/11/29 03:32:11;;;;;;;22.58;12.15;;;;;;;;;;345390;153;864823;-57
2021/11/29 03:33:13;;;;;;;19.53;12.94;;;;;;;;;;345505;153;866686;-58
2021/11/29 03:34:15;;;;;;;17.77;11.29;;;;;;;;;;344986;153;864776;-57
2021/11/29 03:35:16;;;;;;;16.47;10.73;;;;;;;;;;344826;153;866509;-58
2021/11/29 03:36:18;;;;;;;20.65;11.27;;;;;;;;;;345957;153;866185;-57
2021/11/29 03:37:20;;;;;;;17.49;12.58;;;;;;;;;;346233;153;860820;-57
2021/11/29 03:38:21;;;;;;;18.84;10.12;;;;;;;;;;344833;153;864801;-57
2021/11/29 03:39:23;;;;;;;19.64;12.19;;;;;;;;;;345985;153;866269;-57
2021/11/29 03:40:26;;;;;;;18.25;13.26;;;;;;;;;;347921;153;857331;-56
2021/11/29 03:41:27;;;;;;;13.28;8.71;;;;;;;;;;344023;154;857254;-57
2021/11/29 03:42:29;;;;;;;21.36;12.90;;;;;;;;;;344976;153;865043;-57
2021/11/29 03:43:30;;;;;;;21.91;12.93;;;;;;;;;;345388;153;863858;-56
2021/11/29 03:44:34;;;;;;;21.54;12.89;;;;;;;;;;343473;153;857181;-56
2021/11/29 03:45:35;;;;;;;22.88;12.61;;;;;;;;;;344052;153;865602;-55
2021/11/29 03:46:37;;;;;;;22.45;12.81;;;;;;;;;;344500;153;857818;-56
2021/11/29 03:47:39;;;;;;;19.79;12.23;;;;;;;;;;337759;156;866642;-56
2021/11/29 03:48:41;;;;;;;19.66;13.04;;;;;;;;;;344020;153;860436;-56
2021/11/29 03:49:42;;;;;;;19.12;12.48;;;;;;;;;;344641;155;864932;-55
2021/11/29 03:50:44;;;;;;;20.60;12.57;;;;;;;;;;344860;153;866697;-56
2021/11/29 03:51:46;;;;;;;18.49;12.26;;;;;;;;;;344897;153;857311;-57
2021/11/29 03:52:47;;;;;;;22.40;12.84;;;;;;;;;;339239;157;865724;-57
2021/11/29 03:53:49;;;;;;;21.09;13.14;;;;;;;;;;344218;154;862360;-57
2021/11/29 03:54:52;;;;;;;19.46;12.03;;;;;;;;;;344600;153;866522;-57
2021/11/29 03:55:53;;;;;;;19.98;12.89;;;;;;;;;;344273;153;864430;-57
2021/11/29 03:56:55;;;;;;;17.51;11.54;;;;;;;;;;343468;153;857218;-55
2021/11/29 03:57:57;;;;;;;20.62;13.44;;;;;;;;;;344552;153;865634;-59
2021/11/29 03:58:59;;;;;;;19.08;12.59;;;;;;;;;;345608;153;857278;-57
2021/11/29 04:00:01;;;;;;;19.11;13.45;;;;;;;;;;344418;153;859075;-57
2021/11/29 04:01:03;;;;;;;19.49;12.07;;;;;;;;;;343987;153;865279;-57
2021/11/29 04:02:04;;;;;;;17.98;12.45;;;;;;;;;;344924;153;857918;-57
2021/11/29 04:03:06;;;;;;;21.23;13.41;;;;;;;;;;343672;154;857606;-56
2021/11/29 04:04:08;;;;;;;18.64;12.61;;;;;;;;;;344429;156;858967;-57
2021/11/29 04:05:09;;;;;;;19.00;12.61;;;;;;;;;;344821;153;864780;-57
2021/11/29 04:06:13;;;;;;;17.89;12.65;;;;;;;;;;345095;153;863405;-56
2021/11/29 04:07:14;;;;;;;25.46;13.61;;;;;;;;;;344819;153;859646;-57
2021/11/29 04:08:16;;;;;;;18.91;11.96;;;;;;;;;;345544;153;866899;-57
2021/11/29 04:09:17;;;;;;;22.06;12.76;;;;;;;;;;344676;153;861595;-56
2021/11/29 04:10:19;;;;;;;18.17;12.33;;;;;;;;;;342570;153;864802;-56
2021/11/29 04:11:21;;;;;;;17.86;12.06;;;;;;;;;;338252;156;858448;-57
2021/11/29 04:12:22;;;;;;;19.70;12.75;;;;;;;;;;345479;153;867030;-57
2021/11/29 04:13:24;;;;;;;17.04;11.89;;;;;;;;;;345849;153;865951;-57
2021/11/29 04:14:26;;;;;;;18.67;11.19;;;;;;;;;;344322;153;863294;-59
2021/11/29 04:15:27;;;;;;;16.24;11.45;;;;;;;;;;344087;155;862773;-57
2021/11/29 04:16:29;;;;;;;19.69;11.51;;;;;;;;;;344981;153;863470;-57
2021/11/29 04:17:31;;;;;;;19.34;11.81;;;;;;;;;;346671;153;864152;-57
2021/11/29 04:18:35;;;;;;;21.57;12.87;;;;;;;;;;344473;153;865223;-57
2021/11/29 04:19:41;;;;;;;18.92;12.60;;;;;;;;;;345048;153;857221;-58
2021/11/29 04:20:40;;;;;;;19.32;11.69;;;;;;;;;;344019;153;864860;-57
2021/11/29 04:21:43;;;;;;;17.84;11.85;;;;;;;;;;343412;153;865746;-57
2021/11/29 04:22:45;;;;;;;19.79;12.09;;;;;;;;;;345796;153;859288;-56
2021/11/29 04:23:48;;;;;;;17.47;12.01;;;;;;;;;;343259;153;857139;-58
2021/11/29 04:24:49;;;;;;;17.81;12.33;;;;;;;;;;344118;153;858330;-58
2021/11/29 04:25:57;;;;;;;18.26;10.74;;;;;;;;;;346063;153;859470;-58
2021/11/29 04:27:02;;;;;;;17.76;11.62;;;;;;;;;;344848;153;864552;-58
2021/11/29 04:28:01;;;;;;;18.77;12.35;;;;;;;;;;342858;153;857630;-58
2021/11/29 04:29:07;;;;;;;17.20;12.51;;;;;;;;;;344495;153;864583;-59
2021/11/29 04:30:13;;;;;;;16.30;11.73;;;;;;;;;;347331;153;864535;-58
2021/11/29 04:31:11;;;;;;;16.68;11.46;;;;;;;;;;343240;153;857394;-57
2021/11/29 04:32:13;;;;;;;17.06;11.21;;;;;;;;;;344484;153;858754;-58
2021/11/29 04:33:14;;;;;;;17.54;11.86;;;;;;;;;;344959;153;857633;-58
2021/11/29 04:34:16;;;;;;;19.45;12.09;;;;;;;;;;343987;153;865006;-57
2021/11/29 04:35:17;;;;;;;17.78;12.02;;;;;;;;;;344199;153;859985;-58
2021/11/29 04:36:20;;;;;;;16.23;10.89;;;;;;;;;;337275;156;864451;-58
2021/11/29 04:37:21;;;;;;;19.22;11.13;;;;;;;;;;344312;156;859134;-58
2021/11/29 04:38:23;;;;;;;14.42;10.06;;;;;;;;;;344436;153;864670;-59
2021/11/29 04:39:25;;;;;;;18.02;12.59;;;;;;;;;;346501;153;860742;-58
2021/11/29 04:40:27;;;;;;;20.25;12.47;;;;;;;;;;345677;153;864724;-64
2021/11/29 04:41:28;;;;;;;16.08;11.70;;;;;;;;;;344545;153;859427;-67
2021/11/29 04:42:30;;;;;;;16.26;11.27;;;;;;;;;;342804;153;858124;-63
2021/11/29 04:43:32;;;;;;;14.67;10.33;;;;;;;;;;345763;153;866727;-57
2021/11/29 04:44:33;;;;;;;14.33;10.24;;;;;;;;;;344383;153;864949;-63
2021/11/29 04:45:35;;;;;;;17.47;11.09;;;;;;;;;;343938;153;865601;-67
2021/11/29 04:46:37;;;;;;;18.29;12.21;;;;;;;;;;337812;156;863044;-63
2021/11/29 04:47:38;;;;;;;15.74;10.68;;;;;;;;;;343218;153;864789;-60
2021/11/29 04:48:40;;;;;;;16.71;10.51;;;;;;;;;;343091;153;866449;-58
2021/11/29 04:49:41;;;;;;;19.53;12.68;;;;;;;;;;344437;153;865094;-58
2021/11/29 04:50:43;;;;;;;18.10;10.34;;;;;;;;;;336672;156;862749;-59
2021/11/29 04:51:45;;;;;;;16.31;9.48;;;;;;;;;;345572;153;860986;-59
2021/11/29 04:52:46;;;;;;;17.19;10.61;;;;;;;;;;344630;153;866507;-59
2021/11/29 04:53:48;;;;;;;16.89;11.71;;;;;;;;;;344437;153;865633;-59
2021/11/29 04:54:49;;;;;;;15.84;10.22;;;;;;;;;;344928;153;866731;-58
2021/11/29 04:55:51;;;;;;;17.63;10.67;;;;;;;;;;345443;153;866151;-58
2021/11/29 04:56:52;;;;;;;16.21;10.64;;;;;;;;;;344731;153;858595;-59
2021/11/29 04:57:54;;;;;;;14.78;10.76;;;;;;;;;;345735;153;862443;-62
2021/11/29 04:58:56;;;;;;;20.09;11.52;;;;;;;;;;344768;153;862397;-63
2021/11/29 04:59:57;;;;;;;15.56;10.11;;;;;;;;;;344517;153;865967;-57
2021/11/29 05:00:59;;;;;;;15.69;10.44;;;;;;;;;;344882;153;865109;-57
2021/11/29 05:02:02;;;;;;;16.93;11.28;;;;;;;;;;344633;153;867573;-57
2021/11/29 05:03:03;;;;;;;15.53;11.49;;;;;;;;;;344680;153;864996;-59
2021/11/29 05:04:05;;;;;;;17.44;10.89;;;;;;;;;;344572;153;864803;-58
2021/11/29 05:05:07;;;;;;;16.94;10.80;;;;;;;;;;344570;153;864931;-62
2021/11/29 05:06:09;;;;;;;16.74;11.85;;;;;;;;;;340200;153;864548;-59
2021/11/29 05:07:11;;;;;;;19.94;12.11;;;;;;;;;;343920;153;864972;-58
2021/11/29 05:08:13;;;;;;;17.01;9.41;;;;;;;;;;337165;156;865571;-59
2021/11/29 05:09:15;;;;;;;15.31;10.83;;;;;;;;;;346045;153;865162;-59
2021/11/29 05:10:17;;;;;;;17.88;12.22;;;;;;;;;;345391;153;859020;-58
2021/11/29 05:11:18;;;;;;;19.13;12.11;;;;;;;;;;343728;153;859063;-59
2021/11/29 05:12:20;;;;;;;16.48;11.87;;;;;;;;;;337971;156;866023;-58
2021/11/29 05:13:21;;;;;;;17.41;12.51;;;;;;;;;;333363;158;864527;-58
2021/11/29 05:14:23;;;;;;;15.11;11.00;;;;;;;;;;344040;153;863464;-58
2021/11/29 05:15:25;;;;;;;16.65;11.05;;;;;;;;;;345658;153;865424;-57
2021/11/29 05:16:27;;;;;;;16.46;12.07;;;;;;;;;;345040;153;863898;-57
2021/11/29 05:17:28;;;;;;;15.21;10.81;;;;;;;;;;335163;156;857660;-57
2021/11/29 05:18:30;;;;;;;14.93;9.44;;;;;;;;;;343767;153;857905;-56
2021/11/29 05:19:32;;;;;;;19.24;10.89;;;;;;;;;;346302;153;864966;-56
2021/11/29 05:20:34;;;;;;;13.47;9.41;;;;;;;;;;344984;153;858949;-56
2021/11/29 05:21:35;;;;;;;18.36;11.19;;;;;;;;;;343314;153;857854;-56
2021/11/29 05:22:37;;;;;;;16.59;10.09;;;;;;;;;;343697;153;867082;-57
2021/11/29 05:23:38;;;;;;;17.95;10.61;;;;;;;;;;344278;153;865154;-56
2021/11/29 05:24:40;;;;;;;16.24;10.90;;;;;;;;;;345425;154;865656;-57
2021/11/29 05:25:42;;;;;;;13.41;8.39;;;;;;;;;;344023;153;862505;-57
2021/11/29 05:26:43;;;;;;;14.91;11.04;;;;;;;;;;342908;155;862619;-58
2021/11/29 05:27:45;;;;;;;16.62;11.36;;;;;;;;;;344706;153;865534;-58
2021/11/29 05:28:47;;;;;;;16.32;11.11;;;;;;;;;;337312;156;866741;-60
2021/11/29 05:29:49;;;;;;;16.13;10.83;;;;;;;;;;344491;153;857770;-60
2021/11/29 05:30:51;;;;;;;17.53;11.21;;;;;;;;;;344932;153;857155;-58
2021/11/29 05:31:52;;;;;;;16.36;11.41;;;;;;;;;;344118;153;858100;-58
2021/11/29 05:32:54;;;;;;;16.92;11.49;;;;;;;;;;346134;153;863820;-57
2021/11/29 05:33:56;;;;;;;18.37;12.26;;;;;;;;;;345924;153;866670;-56
2021/11/29 05:34:57;;;;;;;17.84;11.56;;;;;;;;;;345554;153;865418;-57
2021/11/29 05:35:59;;;;;;;15.84;10.89;;;;;;;;;;343770;153;867819;-57
2021/11/29 05:37:01;;;;;;;14.98;11.54;;;;;;;;;;344461;155;865545;-59
2021/11/29 05:38:02;;;;;;;17.60;10.84;;;;;;;;;;338036;156;865940;-60
2021/11/29 05:39:04;;;;;;;14.63;10.56;;;;;;;;;;343694;154;865015;-58
2021/11/29 05:40:07;;;;;;;19.80;10.93;;;;;;;;;;337135;157;865132;-58
2021/11/29 05:41:08;;;;;;;16.16;10.31;;;;;;;;;;345487;154;857483;-57
2021/11/29 05:42:10;;;;;;;13.21;8.21;;;;;;;;;;344123;153;857186;-62
2021/11/29 05:43:11;;;;;;;15.31;11.24;;;;;;;;;;340274;156;865243;-58
2021/11/29 05:44:13;;;;;;;14.01;8.89;;;;;;;;;;340795;157;857342;-58
2021/11/29 05:45:15;;;;;;;15.74;9.74;;;;;;;;;;340625;156;865111;-56
2021/11/29 05:46:22;;;;;;;17.65;10.89;;;;;;;;;;337644;156;859120;-58
2021/11/29 05:47:21;;;;;;;14.75;9.38;;;;;;;;;;337528;156;857348;-58
2021/11/29 05:48:23;;;;;;;16.23;11.31;;;;;;;;;;340403;155;857382;-59
2021/11/29 05:49:24;;;;;;;16.35;10.75;;;;;;;;;;340860;158;864973;-59
2021/11/29 05:50:26;;;;;;;17.20;11.54;;;;;;;;;;339839;154;857394;-58
2021/11/29 05:51:28;;;;;;;13.64;8.97;;;;;;;;;;340681;156;864996;-58
2021/11/29 05:52:30;;;;;;;16.05;10.65;;;;;;;;;;340641;156;857360;-59
2021/11/29 05:53:31;;;;;;;17.56;11.63;;;;;;;;;;340125;154;857758;-60
2021/11/29 05:54:33;;;;;;;14.48;8.49;;;;;;;;;;338901;156;858018;-59
2021/11/29 05:55:35;;;;;;;17.90;11.05;;;;;;;;;;340914;156;864971;-57